Time;durP1;ratioP1;P1;durP2;ratioP2;P2;SDS_P1;SDS_P2;PMS_P1;PMS_P2;Temp;Humidity;BMP_temperature;BMP_pressure;BME280_temperature;BME280_humidity;BME280_pressure;Samples;Min_cycle;Max_cycle;Signal;HPM_P1;HPM_P2
2021/09/01 00:01:53;;;;;;;11.47;3.27;;;;;;;13.23;100.00;110793.66;5044809;28;20105;-67
2021/09/01 00:04:18;;;;;;;13.73;3.40;;;;;;;13.13;100.00;112460.22;5056209;28;20056;-67
2021/09/01 00:06:43;;;;;;;11.63;3.33;;;;;;;13.07;100.00;113124.00;5049405;28;20035;-67
2021/09/01 00:09:09;;;;;;;16.77;3.30;;;;;;;13.08;100.00;114812.75;5053523;28;20025;-68
2021/09/01 00:11:35;;;;;;;11.47;3.30;;;;;;;12.94;100.00;114109.34;5048801;28;20602;-67
2021/09/01 00:14:01;;;;;;;9.90;2.80;;;;;;;12.96;100.00;116812.69;5053629;28;20028;-67
2021/09/01 00:16:27;;;;;;;10.03;3.40;;;;;;;12.96;100.00;120865.69;5055206;28;20028;-68
2021/09/01 00:19:01;;;;;;;15.07;3.30;;;;;;;12.91;100.00;124237.16;5050557;28;20032;-68
2021/09/01 00:21:26;;;;;;;13.60;3.17;;;;;;;12.88;100.00;125584.97;5050933;28;20262;-68
2021/09/01 00:23:52;;;;;;;12.77;3.50;;;;;;;12.91;100.00;123561.78;5049576;28;20051;-67
2021/09/01 00:26:18;;;;;;;10.30;3.60;;;;;;;12.97;100.00;120529.88;5049316;28;20228;-68
2021/09/01 00:28:44;;;;;;;9.70;3.93;;;;;;;12.97;100.00;119854.09;5043870;28;20035;-68
2021/09/01 00:31:10;;;;;;;16.07;3.60;;;;;;;13.00;100.00;119522.44;5047137;28;20025;-68
2021/09/01 00:33:35;;;;;;;14.87;4.13;;;;;;;13.05;100.00;119532.75;5046813;28;20032;-67
2021/09/01 00:36:01;;;;;;;12.13;3.70;;;;;;;13.05;100.00;118181.53;5053772;28;20024;-68
2021/09/01 00:38:26;;;;;;;9.93;3.20;;;;;;;13.09;100.00;116163.72;5050903;28;20017;-68
2021/09/01 00:40:56;;;;;;;13.47;3.60;;;;;;;13.03;100.00;116490.25;5049672;28;20119;-67
2021/09/01 00:43:22;;;;;;;13.13;3.37;;;;;;;12.95;100.00;117485.84;5043266;28;20012;-68
2021/09/01 00:45:48;;;;;;;17.23;3.83;;;;;;;12.89;100.00;117474.72;5055202;28;20393;-68
2021/09/01 00:48:17;;;;;;;17.93;3.93;;;;;;;12.83;100.00;116112.59;5056213;28;20020;-68
2021/09/01 00:50:43;;;;;;;12.13;4.00;;;;;;;12.78;100.00;115428.88;5049926;28;20047;-68
2021/09/01 00:53:10;;;;;;;13.77;3.40;;;;;;;12.70;100.00;115411.94;5053539;28;20024;-67
2021/09/01 00:55:36;;;;;;;12.47;3.70;;;;;;;12.65;100.00;116751.25;5041970;28;20029;-67
2021/09/01 00:58:02;;;;;;;10.13;3.67;;;;;;;12.63;100.00;116748.25;5043976;28;20116;-67
2021/09/01 01:03:19;;;;;;;13.02;3.80;;;;;;;12.46;100.00;116039.47;4975549;28;20061;-67
2021/09/01 01:05:45;;;;;;;14.23;4.27;;;;;;;12.38;100.00;116024.47;4977144;28;20034;-67
2021/09/01 01:08:12;;;;;;;13.97;4.20;;;;;;;12.43;100.00;118057.22;4977036;28;20259;-68
2021/09/01 01:10:38;;;;;;;13.30;4.30;;;;;;;12.39;100.00;121424.34;4977081;28;20101;-68
2021/09/01 01:13:03;;;;;;;10.73;3.93;;;;;;;12.26;100.00;122074.50;4977135;28;20107;-68
2021/09/01 01:15:29;;;;;;;9.90;4.10;;;;;;;12.24;100.00;123420.16;4976532;28;20125;-68
2021/09/01 01:17:54;;;;;;;12.40;4.50;;;;;;;12.19;100.00;124086.16;4977123;28;20034;-68
2021/09/01 01:20:20;;;;;;;12.77;4.60;;;;;;;12.11;100.00;124744.69;4976995;28;20065;-68
2021/09/01 01:22:45;;;;;;;18.87;4.63;;;;;;;12.08;100.00;125413.97;4976822;28;20172;-68
2021/09/01 01:25:11;;;;;;;15.53;3.83;;;;;;;12.05;100.00;125407.50;4976442;28;20867;-68
2021/09/01 01:27:39;;;;;;;12.67;4.03;;;;;;;12.06;100.00;127099.50;4961549;28;20065;-68
2021/09/01 01:30:16;;;;;;;12.77;3.70;;;;;;;12.03;100.00;128783.53;4976352;28;20319;-68
2021/09/01 01:32:44;;;;;;;15.27;4.30;;;;;;;12.03;100.00;130813.28;4974560;28;20468;-68
2021/09/01 01:35:23;;;;;;;12.83;4.27;;;;;;;12.02;100.00;132841.94;4976484;28;20252;-68
2021/09/01 01:37:49;;;;;;;15.60;4.20;;;;;;;12.02;100.00;134874.00;4977165;28;20438;-68
2021/09/01 01:40:14;;;;;;;18.83;4.37;;;;;;;11.95;100.00;135535.22;5008813;28;20371;-68
2021/09/01 01:42:41;;;;;;;18.53;4.60;;;;;;;11.98;100.00;134525.91;5038890;28;20459;-68
2021/09/01 01:45:08;;;;;;;17.50;4.87;;;;;;;12.10;100.00;134213.84;5038419;28;20100;-68
2021/09/01 01:47:34;;;;;;;16.70;4.33;;;;;;;12.03;100.00;132844.22;5039548;28;20017;-67
2021/09/01 01:49:59;;;;;;;14.83;4.43;;;;;;;12.06;100.00;132849.94;5036176;28;20516;-67
2021/09/01 01:52:25;;;;;;;16.47;4.03;;;;;;;11.98;100.00;131479.91;5038644;28;20025;-67
2021/09/01 01:54:50;;;;;;;15.93;4.57;;;;;;;11.93;100.00;128086.19;5035712;28;20032;-67
2021/09/01 01:57:16;;;;;;;13.10;3.77;;;;;;;11.80;100.00;126366.78;5039400;28;20025;-67
2021/09/01 01:59:41;;;;;;;15.70;3.90;;;;;;;11.67;100.00;123638.41;5034091;28;20024;-67
2021/09/01 02:02:06;;;;;;;13.97;3.60;;;;;;;11.55;100.00;121927.06;5036537;28;20044;-67
2021/09/01 02:04:32;;;;;;;9.20;4.07;;;;;;;11.48;100.00;120900.72;5038150;28;20609;-67
2021/09/01 02:06:57;;;;;;;12.80;3.60;;;;;;;11.43;100.00;120553.22;5035536;28;20040;-67
2021/09/01 02:09:23;;;;;;;14.10;3.37;;;;;;;11.37;100.00;120877.78;5037555;28;20029;-68
2021/09/01 02:11:48;;;;;;;12.37;4.10;;;;;;;11.41;100.00;122235.88;5028243;28;20039;-68
2021/09/01 02:14:14;;;;;;;12.47;3.70;;;;;;;11.39;100.00;122905.09;5024812;28;20037;-68
2021/09/01 02:16:40;;;;;;;10.70;3.30;;;;;;;11.35;100.00;122222.13;5027471;28;20029;-68
2021/09/01 02:19:05;;;;;;;14.47;4.27;;;;;;;11.35;100.00;122896.59;5035858;28;20236;-68
2021/09/01 02:21:31;;;;;;;10.80;3.67;;;;;;;11.41;100.00;123921.38;5036488;28;20017;-68
2021/09/01 02:23:56;;;;;;;16.70;4.03;;;;;;;11.39;100.00;124593.00;5033368;28;20041;-68
2021/09/01 02:26:22;;;;;;;10.80;3.97;;;;;;;11.45;100.00;124942.31;5032912;28;20040;-68
2021/09/01 02:28:47;;;;;;;13.73;3.67;;;;;;;11.41;100.00;125271.19;5038237;28;20033;-68
2021/09/01 02:31:13;;;;;;;25.97;4.20;;;;;;;11.40;100.00;124595.16;5034050;28;20703;-68
2021/09/01 02:33:38;;;;;;;11.37;3.50;;;;;;;11.37;100.00;123912.78;5030723;28;20036;-68
2021/09/01 02:36:04;;;;;;;11.60;3.70;;;;;;;11.31;100.00;121877.59;5038583;28;20048;-68
2021/09/01 02:38:29;;;;;;;10.47;3.70;;;;;;;11.34;100.00;121209.63;5032353;28;20052;-68
2021/09/01 02:40:56;;;;;;;10.20;3.87;;;;;;;11.44;100.00;122579.44;5039366;28;20111;-68
2021/09/01 02:43:22;;;;;;;13.33;3.87;;;;;;;11.56;100.00;123953.44;5032638;28;20017;-68
2021/09/01 02:45:47;;;;;;;17.33;3.93;;;;;;;11.66;100.00;125325.25;5029412;28;20497;-68
2021/09/01 02:48:15;;;;;;;16.93;4.93;;;;;;;11.80;100.00;126366.78;5028242;28;20021;-68
2021/09/01 02:50:41;;;;;;;17.00;4.87;;;;;;;11.86;100.00;126379.84;5035968;28;20029;-68
2021/09/01 02:53:06;;;;;;;15.53;4.03;;;;;;;11.96;100.00;126063.75;5034087;28;20101;-68
2021/09/01 02:55:32;;;;;;;14.83;4.43;;;;;;;12.09;100.00;126428.91;5034318;28;20040;-68
2021/09/01 02:57:57;;;;;;;13.20;4.23;;;;;;;12.19;100.00;127126.91;5028107;28;20122;-68
2021/09/01 03:00:23;;;;;;;21.53;4.57;;;;;;;12.19;100.00;125775.75;5031949;28;20269;-68
2021/09/01 03:02:48;;;;;;;10.87;4.53;;;;;;;12.13;100.00;124072.28;5033218;28;20120;-68
2021/09/01 03:05:14;;;;;;;13.33;4.17;;;;;;;12.08;100.00;122711.78;5041308;28;20429;-68
2021/09/01 03:07:39;;;;;;;15.50;4.17;;;;;;;12.11;100.00;122379.44;5032543;28;20044;-68
2021/09/01 03:10:05;;;;;;;16.90;4.23;;;;;;;12.10;100.00;122039.72;5032080;28;20493;-68
2021/09/01 03:12:31;;;;;;;13.37;4.37;;;;;;;12.09;100.00;122375.22;5025948;28;20030;-68
2021/09/01 03:14:56;;;;;;;12.63;3.93;;;;;;;12.12;100.00;123057.97;5039512;28;20154;-68
2021/09/01 03:17:22;;;;;;;20.00;5.00;;;;;;;12.13;100.00;123735.56;5031105;28;20029;-68
2021/09/01 03:19:48;;;;;;;13.47;3.63;;;;;;;12.13;100.00;123397.81;5036743;28;20051;-68
2021/09/01 03:22:13;;;;;;;16.57;3.50;;;;;;;12.13;100.00;122047.13;5039058;28;20024;-68
2021/09/01 03:24:39;;;;;;;10.60;3.53;;;;;;;12.08;100.00;121699.00;5037377;28;20038;-68
2021/09/01 03:27:04;;;;;;;9.70;3.97;;;;;;;12.01;100.00;121346.84;5040124;28;20029;-68
2021/09/01 03:29:30;;;;;;;11.60;3.60;;;;;;;11.97;100.00;121339.47;5031708;28;20550;-68
2021/09/01 03:31:56;;;;;;;14.87;4.03;;;;;;;11.93;100.00;121668.56;5030142;28;20489;-68
2021/09/01 03:34:22;;;;;;;8.43;3.60;;;;;;;11.96;100.00;122011.28;5029723;28;20025;-68
2021/09/01 03:36:48;;;;;;;11.37;3.67;;;;;;;11.95;100.00;122009.19;5027509;28;20432;-68
2021/09/01 03:39:13;;;;;;;8.30;3.67;;;;;;;11.95;100.00;121671.72;5032155;28;20033;-68
2021/09/01 03:41:39;;;;;;;10.70;3.73;;;;;;;11.97;100.00;121676.94;5033787;28;20059;-68
2021/09/01 03:44:04;;;;;;;13.03;4.20;;;;;;;12.00;100.00;123371.19;5035033;28;20489;-68
2021/09/01 03:46:30;;;;;;;13.30;3.90;;;;;;;12.05;100.00;123718.47;5028215;28;20041;-68
2021/09/01 03:48:55;;;;;;;8.70;3.83;;;;;;;12.11;100.00;124067.97;5029339;28;20040;-69
2021/09/01 03:51:21;;;;;;;17.83;4.73;;;;;;;12.23;100.00;124770.50;5034121;28;20044;-68
2021/09/01 03:53:46;;;;;;;11.23;3.97;;;;;;;12.34;100.00;124455.13;5037921;28;20527;-68
2021/09/01 03:56:12;;;;;;;11.20;3.77;;;;;;;12.41;100.00;123455.28;5034965;28;20478;-68
2021/09/01 03:58:37;;;;;;;18.60;3.90;;;;;;;12.42;100.00;123119.53;5035988;28;20164;-68
2021/09/01 04:01:03;;;;;;;14.37;4.00;;;;;;;12.42;100.00;122444.91;5032836;28;20560;-68
2021/09/01 04:03:28;;;;;;;11.53;3.37;;;;;;;12.44;100.00;122785.91;5023505;28;20498;-68
2021/09/01 04:05:54;;;;;;;11.03;3.63;;;;;;;12.48;100.00;123132.28;5037515;28;20024;-68
2021/09/01 04:08:19;;;;;;;13.77;4.00;;;;;;;12.49;100.00;123134.41;5034585;28;20401;-68
2021/09/01 04:10:45;;;;;;;14.30;4.40;;;;;;;12.46;100.00;122790.13;5037158;28;20029;-68
2021/09/01 04:13:10;;;;;;;13.20;4.27;;;;;;;12.50;100.00;125502.72;5035542;28;20545;-68
2021/09/01 04:15:36;;;;;;;10.33;4.13;;;;;;;12.50;100.00;125840.88;5035884;28;20029;-68
2021/09/01 04:18:01;;;;;;;10.37;3.83;;;;;;;12.44;100.00;125490.78;5036421;28;20048;-68
2021/09/01 04:20:27;;;;;;;16.17;4.93;;;;;;;12.49;100.00;126177.97;5029041;28;20176;-68
2021/09/01 04:22:52;;;;;;;10.77;3.93;;;;;;;12.49;100.00;126176.88;5035758;28;20497;-68
2021/09/01 04:25:18;;;;;;;11.23;4.57;;;;;;;12.50;100.00;126518.38;5034229;28;20033;-68
2021/09/01 04:27:43;;;;;;;15.70;4.40;;;;;;;12.48;100.00;125836.53;5034371;28;20036;-68
2021/09/01 04:30:09;;;;;;;17.60;4.33;;;;;;;12.48;100.00;125836.53;5032714;28;20025;-68
2021/09/01 04:32:35;;;;;;;14.57;4.47;;;;;;;12.47;100.00;125496.19;5030977;28;20489;-68
2021/09/01 04:35:00;;;;;;;14.03;4.83;;;;;;;12.43;100.00;124811.41;5025746;28;20068;-68
2021/09/01 04:37:26;;;;;;;12.83;4.47;;;;;;;12.44;100.00;125489.72;5030164;28;20025;-71
2021/09/01 04:39:51;;;;;;;12.27;3.70;;;;;;;12.43;100.00;124135.41;5029298;28;20033;-72
2021/09/01 04:42:17;;;;;;;9.03;3.50;;;;;;;12.43;100.00;123798.53;5038778;28;20414;-71
2021/09/01 04:44:42;;;;;;;10.20;3.90;;;;;;;12.41;100.00;123455.28;5036503;28;20500;-71
2021/09/01 04:47:07;;;;;;;11.90;4.30;;;;;;;12.44;100.00;123123.78;5025574;28;20064;-71
2021/09/01 04:49:33;;;;;;;15.83;4.33;;;;;;;12.52;100.00;123478.72;5035190;28;20033;-71
2021/09/01 04:51:58;;;;;;;9.70;3.73;;;;;;;12.52;100.00;123141.84;5026396;28;20116;-72
2021/09/01 04:54:24;;;;;;;12.80;3.90;;;;;;;12.57;100.00;115388.03;5029408;28;20033;-71
2021/09/01 04:56:49;;;;;;;12.73;3.83;;;;;;;12.66;100.00;116079.56;5023728;28;20021;-71
2021/09/01 04:59:15;;;;;;;13.17;4.50;;;;;;;12.68;100.00;115408.94;5033036;28;20377;-71
2021/09/01 05:01:40;;;;;;;15.60;4.60;;;;;;;12.77;100.00;115764.22;5028983;28;20125;-71
2021/09/01 05:04:06;;;;;;;12.83;4.80;;;;;;;12.85;100.00;115441.84;5033184;28;20037;-72
2021/09/01 05:06:31;;;;;;;13.43;4.67;;;;;;;12.97;100.00;115802.22;5040353;28;20115;-71
2021/09/01 05:08:57;;;;;;;13.30;4.13;;;;;;;13.03;100.00;114464.44;5034674;28;20037;-71
2021/09/01 05:11:23;;;;;;;12.33;4.13;;;;;;;13.08;100.00;113126.00;5039465;28;20040;-72
2021/09/01 05:13:48;;;;;;;11.97;4.33;;;;;;;13.16;100.00;113140.59;5022064;28;20646;-71
2021/09/01 05:16:14;;;;;;;13.53;4.47;;;;;;;13.23;100.00;111804.22;5039621;28;20029;-71
2021/09/01 05:18:39;;;;;;;17.77;3.90;;;;;;;13.31;100.00;110808.91;5030624;28;20574;-71
2021/09/01 05:21:05;;;;;;;17.70;5.30;;;;;;;13.41;100.00;111165.31;5039509;28;20104;-71
2021/09/01 05:23:33;;;;;;;12.17;4.73;;;;;;;13.57;100.00;111868.84;5031089;28;20624;-71
2021/09/01 05:26:04;;;;;;;14.30;4.97;;;;;;;13.61;100.00;111201.78;5027236;28;20079;-71
2021/09/01 05:28:34;;;;;;;13.20;4.90;;;;;;;13.70;100.00;110881.66;5019678;28;20040;-71
2021/09/01 05:31:01;;;;;;;13.80;4.40;;;;;;;13.78;100.00;109547.44;5039147;28;20239;-71
2021/09/01 05:33:28;;;;;;;12.70;4.60;;;;;;;13.93;100.00;111262.19;5019319;28;20579;-71
2021/09/01 05:35:58;;;;;;;17.07;4.73;;;;;;;14.06;100.00;111625.78;5037902;28;20028;-71
2021/09/01 05:38:27;;;;;;;14.23;5.00;;;;;;;14.15;100.00;110290.59;5019576;28;20030;-71
2021/09/01 05:40:53;;;;;;;15.73;5.00;;;;;;;14.16;100.00;108943.38;5023484;28;20576;-72
2021/09/01 05:43:20;;;;;;;17.83;4.60;;;;;;;14.20;100.00;107938.63;5032593;28;20056;-71
2021/09/01 05:45:47;;;;;;;14.07;4.73;;;;;;;14.33;100.00;105600.53;5038571;28;20052;-72
2021/09/01 05:48:14;;;;;;;17.27;5.30;;;;;;;14.42;100.00;109666.59;5019033;28;20270;-71
2021/09/01 05:50:43;;;;;;;15.07;5.20;;;;;;;14.45;100.00;108659.41;5035839;28;20090;-71
2021/09/01 05:53:10;;;;;;;12.67;4.93;;;;;;;14.55;100.00;108339.59;5018677;28;20124;-71
2021/09/01 05:55:42;;;;;;;12.90;4.73;;;;;;;14.61;100.00;109364.81;5034318;28;20284;-71
2021/09/01 05:58:12;;;;;;;14.37;4.97;;;;;;;14.60;100.00;106662.06;5031515;28;20422;-71
2021/09/01 06:00:40;;;;;;;19.70;5.50;;;;;;;14.78;100.00;109394.97;5040246;28;20045;-71
2021/09/01 06:03:41;;;;;;;13.93;4.70;;;;;;;14.85;100.00;105018.56;5033244;28;20515;-71
2021/09/01 06:06:11;;;;;;;12.23;4.80;;;;;;;14.77;100.00;102981.09;5000358;28;20037;-71
2021/09/01 06:08:37;;;;;;;11.43;4.43;;;;;;;14.80;100.00;99278.06;5000025;28;20049;-71
2021/09/01 06:11:05;;;;;;;14.37;4.20;;;;;;;14.81;100.00;98942.91;4999548;28;20059;-71
2021/09/01 06:13:31;;;;;;;16.73;5.33;;;;;;;14.78;100.00;91200.28;5000184;28;20517;-71
2021/09/01 06:15:56;;;;;;;11.20;4.93;;;;;;;14.90;100.00;94581.44;4986682;28;20030;-71
2021/09/01 06:18:23;;;;;;;15.27;4.40;;;;;;;15.02;100.00;94264.59;5000416;28;20550;-71
2021/09/01 06:20:49;;;;;;;10.90;4.67;;;;;;;15.19;100.00;93282.63;4999982;28;20867;-71
2021/09/01 06:23:14;;;;;;;15.90;5.53;;;;;;;15.34;100.00;81880.34;5000449;28;20041;-71
2021/09/01 06:25:40;;;;;;;13.50;4.73;;;;;;;15.43;100.00;78874.78;4999471;28;20331;-71
2021/09/01 06:28:07;;;;;;;11.43;4.40;;;;;;;15.47;100.00;75530.06;4994224;28;20049;-71
2021/09/01 06:30:34;;;;;;;17.00;4.50;;;;;;;15.60;100.00;66179.47;4998224;28;20046;-71
2021/09/01 06:33:00;;;;;;;13.07;4.83;;;;;;;15.61;100.00;65846.00;4989979;28;20049;-71
2021/09/01 06:35:25;;;;;;;13.00;4.50;;;;;;;15.59;100.00;62171.22;4994766;28;20538;-71
2021/09/01 06:37:51;;;;;;;12.50;4.27;;;;;;;15.79;100.00;67872.22;4999882;28;20125;-71
2021/09/01 06:40:19;;;;;;;11.23;3.90;;;;;;;15.88;100.00;43890.81;5020059;28;20115;-71
2021/09/01 06:42:45;;;;;;;12.63;4.97;;;;;;;16.00;100.00;50216.09;5032757;28;20414;-71
2021/09/01 06:45:11;;;;;;;16.07;4.47;;;;;;;16.16;100.00;29658.63;5034753;28;20033;-71
2021/09/01 06:47:50;;;;;;;17.57;4.70;;;;;;;16.15;100.00;30650.81;5028989;28;20124;-71
2021/09/01 06:50:19;;;;;;;10.60;4.20;;;;;;;16.16;100.00;6256.03;5036155;28;20386;-71
2021/09/01 06:52:46;;;;;;;15.27;4.27;;;;;;;16.52;100.00;-3910.47;5030240;28;20034;-71
2021/09/01 06:55:12;;;;;;;12.30;4.30;;;;;;;16.59;100.00;-18917.72;5035417;28;20509;-71
2021/09/01 06:57:39;;;;;;;10.83;3.90;;;;;;;16.70;100.00;-12997.41;5037341;28;20465;-71
2021/09/01 07:00:06;;;;;;;10.43;4.13;;;;;;;16.80;100.00;-19602.84;5042160;28;20033;-71
2021/09/01 07:02:32;;;;;;;11.90;4.27;;;;;;;16.96;100.00;-19607.03;5035931;28;20041;-71
2021/09/01 07:04:58;;;;;;;14.97;4.70;;;;;;;16.97;100.00;-19607.28;5033651;28;20106;-71
2021/09/01 07:07:24;;;;;;;12.00;4.23;;;;;;;17.20;100.00;-19613.03;5028445;28;20056;-71
2021/09/01 07:09:49;;;;;;;10.43;3.63;;;;;;;17.25;100.00;-19614.34;5032029;28;20504;-71
2021/09/01 07:12:15;;;;;;;10.13;3.60;;;;;;;17.13;100.00;-19611.19;5028033;28;20308;-71
2021/09/01 07:14:40;;;;;;;8.97;3.37;;;;;;;16.99;100.00;-19607.81;5031305;28;20029;-71
2021/09/01 07:17:06;;;;;;;10.43;4.07;;;;;;;17.29;100.00;-19615.38;5027700;28;20025;-71
2021/09/01 07:19:31;;;;;;;16.67;3.80;;;;;;;17.02;100.00;-19608.34;5031068;28;20237;-71
2021/09/01 07:22:05;;;;;;;9.67;3.80;;;;;;;17.18;100.00;-19612.50;5040481;28;20044;-70
2021/09/01 07:24:31;;;;;;;9.23;3.80;;;;;;;17.32;100.00;-19616.16;5035865;28;20278;-72
2021/09/01 07:26:56;;;;;;;15.53;4.37;;;;;;;17.48;100.00;-19620.34;5032493;28;20021;-72
2021/09/01 07:29:22;;;;;;;7.40;3.50;;;;;;;17.82;100.00;-19628.97;5026501;28;20025;-72
2021/09/01 07:31:47;;;;;;;13.97;3.63;;;;;;;17.99;100.00;-19633.25;5034476;28;20120;-73
2021/09/01 07:34:13;;;;;;;10.60;3.40;;;;;;;17.96;100.00;-19632.47;5033340;28;20158;-72
2021/09/01 07:36:38;;;;;;;11.87;3.83;;;;;;;17.81;100.00;-19628.81;5031766;28;20021;-72
2021/09/01 07:39:04;;;;;;;9.88;3.58;;;;;;;18.26;100.00;-19640.16;5035363;28;20028;-72
2021/09/01 07:41:29;;;;;;;10.60;3.60;;;;;;;18.13;100.00;-19637.03;5039056;28;20489;-72
2021/09/01 07:43:55;;;;;;;10.98;3.50;;;;;;;18.12;100.00;-19636.78;5040063;28;20032;-72
2021/09/01 07:46:20;;;;;;;10.68;3.90;;;;;;;17.95;100.00;-19632.22;5040273;28;20086;-72
2021/09/01 07:48:46;;;;;;;17.80;3.95;;;;;;;18.16;100.00;-19637.69;5039063;28;20266;-72
2021/09/01 07:51:11;;;;;;;12.25;3.60;;;;;;;18.57;100.00;-19648.25;5035967;28;20239;-72
2021/09/01 07:53:37;;;;;;;11.15;3.20;;;;;;;18.63;100.00;-19649.81;5037613;28;20469;-72
2021/09/01 07:56:03;;;;;;;13.77;3.20;;;;;;;18.29;100.00;-19640.94;5025118;28;20116;-72
2021/09/01 07:58:28;;;;;;;6.60;2.78;;;;;;;18.84;100.00;-19655.03;5035607;28;20059;-72
2021/09/01 08:00:54;;;;;;;10.40;3.30;;;;;;;19.12;100.00;-19662.19;5032180;28;20037;-72
2021/09/01 08:03:19;;;;;;;8.90;3.20;;;;;;;19.21;100.00;-19664.66;5037946;28;20555;-72
2021/09/01 08:05:45;;;;;;;10.32;3.30;;;;;;;19.36;100.00;-19668.31;5038046;28;20440;-72
2021/09/01 08:08:10;;;;;;;12.13;3.08;;;;;;;19.10;100.00;-19661.78;5034222;28;20057;-72
2021/09/01 08:10:36;;;;;;;7.97;3.05;;;;;;;19.63;100.00;-19675.34;5033374;28;20021;-72
2021/09/01 08:13:01;;;;;;;8.65;3.35;;;;;;;19.96;100.00;-19683.66;5033324;28;20033;-72
2021/09/01 08:15:27;;;;;;;7.93;2.60;;;;;;;19.98;100.00;-19684.19;5025683;28;20083;-72
2021/09/01 08:17:53;;;;;;;10.15;3.03;;;;;;;20.62;100.00;-19700.56;5020811;28;20121;-72
2021/09/01 08:20:18;;;;;;;9.00;3.08;;;;;;;20.23;100.00;-19690.56;5036172;28;20485;-72
2021/09/01 08:22:44;;;;;;;7.22;2.72;;;;;;;20.58;100.00;-19699.53;5031142;28;20628;-72
2021/09/01 08:25:10;;;;;;;7.90;2.95;;;;;;;18.85;100.00;-19655.41;5038153;28;20024;-73
2021/09/01 08:27:36;;;;;;;7.32;2.75;;;;;;;18.99;100.00;-19658.94;5030221;28;20281;-73
2021/09/01 08:30:04;;;;;;;11.10;2.88;;;;;;;19.17;100.00;-19663.63;5032407;28;20173;-73
2021/09/01 08:32:29;;;;;;;8.32;2.85;;;;;;;19.80;100.00;-19679.63;5040628;28;20048;-72
2021/09/01 08:34:55;;;;;;;9.00;2.35;;;;;;;20.19;100.00;-19689.66;5037647;28;20500;-73
2021/09/01 08:37:20;;;;;;;8.00;2.13;;;;;;;20.11;100.00;-19687.69;5040199;28;20078;-73
2021/09/01 08:39:46;;;;;;;10.60;2.60;;;;;;;20.07;100.00;-19686.53;5039367;28;20059;-73
2021/09/01 08:42:12;;;;;;;8.35;2.28;;;;;;;19.63;100.00;-19675.34;5029855;28;20070;-72
2021/09/01 08:44:37;;;;;;;7.85;2.40;;;;;;;19.80;100.00;-19679.75;5035309;28;20025;-72
2021/09/01 08:47:03;;;;;;;7.75;2.33;;;;;;;19.69;100.00;-19676.91;5020614;28;20083;-72
2021/09/01 08:49:30;;;;;;;6.03;1.90;;;;;;;18.98;100.00;-19658.66;5027658;28;20257;-72
2021/09/01 08:51:57;;;;;;;7.53;1.80;;;;;;;19.56;100.00;-19673.50;5034904;28;20431;-72
2021/09/01 08:54:23;;;;;;;6.88;2.17;;;;;;;19.85;100.00;-19681.06;5034582;28;20612;-72
2021/09/01 08:56:49;;;;;;;8.70;2.03;;;;;;;19.71;100.00;-19677.41;5030918;28;20336;-72
2021/09/01 08:59:14;;;;;;;9.88;2.42;;;;;;;20.22;100.00;-19690.41;5039371;28;20098;-72
2021/09/01 09:01:52;;;;;;;4.63;1.90;;;;;;;20.34;100.00;-19693.41;5037830;28;20045;-72
2021/09/01 09:04:27;;;;;;;7.43;1.50;;;;;;;20.57;100.00;-19699.41;5036926;28;20063;-72
2021/09/01 09:07:00;;;;;;;5.78;2.17;;;;;;;19.88;100.00;-19681.84;5027008;28;20037;-72
2021/09/01 09:09:31;;;;;;;4.97;1.90;;;;;;;19.80;100.00;-19679.75;5031482;28;20684;-72
2021/09/01 09:11:58;;;;;;;5.70;1.85;;;;;;;19.00;100.00;-19659.19;5031625;28;20048;-72
2021/09/01 09:14:39;;;;;;;4.97;1.48;;;;;;;21.91;100.00;-19733.53;5030631;28;20033;-72
2021/09/01 09:17:21;;;;;;;7.32;1.92;;;;;;;22.59;97.39;-19750.91;5027583;28;20033;-69
2021/09/01 09:20:00;;;;;;;7.03;1.90;;;;;;;22.51;79.79;-19748.84;5033061;28;20029;-69
2021/09/01 09:22:37;;;;;;;4.63;1.90;;;;;;;23.65;91.27;-19778.00;5021346;28;20030;-69
2021/09/01 09:25:21;;;;;;;7.63;1.67;;;;;;;21.55;87.05;-19724.34;5032721;28;20029;-68
2021/09/01 09:27:52;;;;;;;5.30;1.50;;;;;;;21.83;99.90;-19731.59;5040093;28;20029;-68
2021/09/01 09:30:25;;;;;;;;;;;;;;;22.06;93.88;-19737.44;5030668;28;20277;-68
2021/09/01 09:33:08;;;;;;;5.60;1.73;;;;;;;23.01;85.43;-19761.53;5033813;28;19943;-69
2021/09/01 09:36:09;;;;;;;6.82;1.92;;;;;;;22.44;91.16;-19747.03;5031494;28;20033;-72
2021/09/01 09:38:43;;;;;;;9.77;1.90;;;;;;;22.23;91.85;-19741.84;5025161;28;20052;-72
2021/09/01 09:41:27;;;;;;;6.20;1.98;;;;;;;25.11;64.50;-19815.09;5023634;28;20037;-72
2021/09/01 09:43:58;;;;;;;4.65;1.70;;;;;;;24.60;68.23;-19801.91;5028571;28;20143;-73
2021/09/01 09:46:25;;;;;;;7.93;1.98;;;;;;;21.70;79.39;-19728.22;5039490;28;20565;-73
2021/09/01 09:48:52;;;;;;;5.75;1.50;;;;;;;22.19;79.10;-19740.69;5030035;28;20120;-73
2021/09/01 09:51:34;;;;;;;6.50;1.83;;;;;;;21.93;78.16;-19734.06;5031309;28;20557;-73
2021/09/01 09:54:13;;;;;;;8.52;1.92;;;;;;;23.79;71.62;-19781.34;5040646;28;20480;-73
2021/09/01 09:56:39;;;;;;;11.63;1.90;;;;;;;23.32;80.25;-19769.56;5042258;28;20703;-73
2021/09/01 09:59:05;;;;;;;6.95;2.58;;;;;;;20.31;91.69;-19692.75;5024872;28;20029;-73
2021/09/01 10:01:31;;;;;;;7.95;2.08;;;;;;;21.55;98.41;-19724.34;5039633;28;20259;-73
2021/09/01 10:03:57;;;;;;;6.82;1.85;;;;;;;22.44;89.74;-19747.03;5025124;28;20482;-73
2021/09/01 10:06:22;;;;;;;8.00;1.88;;;;;;;23.06;87.43;-19762.84;5040137;28;20111;-73
2021/09/01 10:08:52;;;;;;;9.00;1.88;;;;;;;23.56;78.27;-19775.53;5023022;28;20081;-73
2021/09/01 10:11:20;;;;;;;6.85;2.03;;;;;;;23.93;71.52;-19784.97;5039738;28;20084;-73
2021/09/01 10:13:49;;;;;;;5.63;1.80;;;;;;;23.24;77.01;-19767.50;5020988;28;20626;-73
2021/09/01 10:16:29;;;;;;;10.20;1.85;;;;;;;23.20;75.19;-19766.47;5038068;28;20048;-73
2021/09/01 10:19:18;;;;;;;5.90;1.83;;;;;;;24.38;72.05;-19796.50;5026489;28;20029;-73
2021/09/01 10:21:51;;;;;;;7.93;2.17;;;;;;;24.01;69.60;-19786.91;5036858;28;20033;-73
2021/09/01 10:24:28;;;;;;;4.55;1.48;;;;;;;24.78;66.02;-19806.56;5030593;28;20029;-73
2021/09/01 10:27:24;;;;;;;5.07;1.90;;;;;;;24.40;62.85;-19797.00;5020803;28;20025;-74
2021/09/01 10:30:11;;;;;;;4.85;1.77;;;;;;;24.13;69.91;-19790.16;5039667;28;20037;-73
2021/09/01 10:32:47;;;;;;;11.93;2.20;;;;;;;25.40;60.79;-19822.31;5033381;28;20505;-73
2021/09/01 10:35:33;;;;;;;5.88;1.83;;;;;;;25.72;56.69;-19830.47;5041815;28;20190;-73
2021/09/01 10:38:04;;;;;;;6.13;1.63;;;;;;;24.52;59.33;-19800.09;5025758;28;20028;-73
2021/09/01 10:40:52;;;;;;;7.40;1.98;;;;;;;23.38;76.94;-19771.13;5035642;28;20308;-73
2021/09/01 10:43:19;;;;;;;5.72;1.80;;;;;;;22.65;71.10;-19752.47;5018986;28;20033;-73
2021/09/01 10:46:03;;;;;;;5.95;1.90;;;;;;;22.53;84.83;-19749.38;5040660;28;20591;-73
2021/09/01 10:48:28;;;;;;;6.97;2.00;;;;;;;22.53;83.38;-19749.38;5043153;28;20028;-72
2021/09/01 10:50:54;;;;;;;5.55;1.92;;;;;;;23.22;87.19;-19766.97;5038658;28;20383;-72
2021/09/01 10:53:28;;;;;;;6.70;1.60;;;;;;;24.50;76.15;-19799.59;5031404;28;20190;-72
2021/09/01 10:56:00;;;;;;;7.22;2.00;;;;;;;24.87;73.41;-19808.75;5041213;28;20214;-72
2021/09/01 10:58:37;;;;;;;6.68;2.20;;;;;;;24.78;64.29;-19806.69;5028212;28;20048;-72
2021/09/01 11:01:17;;;;;;;6.32;1.92;;;;;;;23.80;77.78;-19781.75;5022859;28;20394;-72
2021/09/01 11:03:56;;;;;;;9.07;2.30;;;;;;;24.12;75.53;-19789.91;5027877;28;20217;-72
2021/09/01 11:06:31;;;;;;;6.68;2.00;;;;;;;23.50;75.69;-19773.97;5029697;28;20029;-72
2021/09/01 11:09:14;;;;;;;13.55;2.78;;;;;;;23.29;72.86;-19768.81;5025076;28;20312;-72
2021/09/01 11:11:54;;;;;;;6.70;2.45;;;;;;;22.71;76.02;-19754.03;5039503;28;20032;-72
2021/09/01 11:14:42;;;;;;;7.13;2.47;;;;;;;21.69;91.73;-19727.84;5026298;28;20071;-72
2021/09/01 11:17:10;;;;;;;8.30;2.42;;;;;;;21.46;99.14;-19722.00;5028271;28;20076;-70
2021/09/01 11:19:37;;;;;;;8.25;2.30;;;;;;;21.18;99.02;-19714.84;5039908;28;20025;-73
2021/09/01 11:22:04;;;;;;;9.95;2.40;;;;;;;21.83;100.00;-19731.47;5022463;28;20028;-71